sensor_id;sensor_type;location;lat;lon;timestamp;pressure;altitude;pressure_sealevel;temperature
73937;BMP180;59249;59.736;30.568;2023-12-04T00:00:11;100542.00;;;-5.20
73937;BMP180;59249;59.736;30.568;2023-12-04T00:02:44;100543.00;;;-5.20
73937;BMP180;59249;59.736;30.568;2023-12-04T00:05:13;100544.00;;;-5.20
73937;BMP180;59249;59.736;30.568;2023-12-04T00:07:42;100551.00;;;-5.20
73937;BMP180;59249;59.736;30.568;2023-12-04T00:10:11;100551.00;;;-5.30
73937;BMP180;59249;59.736;30.568;2023-12-04T00:12:42;100545.00;;;-5.30
73937;BMP180;59249;59.736;30.568;2023-12-04T00:15:11;100538.00;;;-5.20
73937;BMP180;59249;59.736;30.568;2023-12-04T00:17:40;100543.00;;;-5.20
73937;BMP180;59249;59.736;30.568;2023-12-04T00:20:10;100541.00;;;-5.30
73937;BMP180;59249;59.736;30.568;2023-12-04T00:22:39;100542.00;;;-5.30
73937;BMP180;59249;59.736;30.568;2023-12-04T00:25:08;100541.00;;;-5.30
73937;BMP180;59249;59.736;30.568;2023-12-04T00:27:42;100550.00;;;-5.20
73937;BMP180;59249;59.736;30.568;2023-12-04T00:30:11;100546.00;;;-5.20
73937;BMP180;59249;59.736;30.568;2023-12-04T00:32:40;100544.00;;;-5.30
73937;BMP180;59249;59.736;30.568;2023-12-04T00:35:12;100540.00;;;-5.30
73937;BMP180;59249;59.736;30.568;2023-12-04T00:37:42;100540.00;;;-5.20
73937;BMP180;59249;59.736;30.568;2023-12-04T00:40:15;100538.00;;;-5.20
73937;BMP180;59249;59.736;30.568;2023-12-04T00:42:48;100539.00;;;-5.20
73937;BMP180;59249;59.736;30.568;2023-12-04T00:45:19;100546.00;;;-5.20
73937;BMP180;59249;59.736;30.568;2023-12-04T00:47:48;100546.00;;;-5.20
73937;BMP180;59249;59.736;30.568;2023-12-04T00:50:18;100537.00;;;-5.20
73937;BMP180;59249;59.736;30.568;2023-12-04T00:52:49;100542.00;;;-5.10
73937;BMP180;59249;59.736;30.568;2023-12-04T00:55:19;100537.00;;;-5.20
73937;BMP180;59249;59.736;30.568;2023-12-04T00:57:50;100530.00;;;-5.20
73937;BMP180;59249;59.736;30.568;2023-12-04T01:00:19;100538.00;;;-5.20
73937;BMP180;59249;59.736;30.568;2023-12-04T01:02:51;100536.00;;;-5.20
73937;BMP180;59249;59.736;30.568;2023-12-04T01:05:24;100542.00;;;-5.20
73937;BMP180;59249;59.736;30.568;2023-12-04T01:07:57;100540.00;;;-5.30
73937;BMP180;59249;59.736;30.568;2023-12-04T01:10:28;100532.00;;;-5.20
73937;BMP180;59249;59.736;30.568;2023-12-04T01:13:01;100543.00;;;-5.20
73937;BMP180;59249;59.736;30.568;2023-12-04T01:15:36;100543.00;;;-5.20
73937;BMP180;59249;59.736;30.568;2023-12-04T01:18:21;100538.00;;;-5.20
73937;BMP180;59249;59.736;30.568;2023-12-04T01:20:52;100535.00;;;-5.20
73937;BMP180;59249;59.736;30.568;2023-12-04T01:23:21;100533.00;;;-5.20
73937;BMP180;59249;59.736;30.568;2023-12-04T01:25:55;100541.00;;;-5.20
73937;BMP180;59249;59.736;30.568;2023-12-04T01:28:28;100534.00;;;-5.20
73937;BMP180;59249;59.736;30.568;2023-12-04T01:30:58;100543.00;;;-5.20
73937;BMP180;59249;59.736;30.568;2023-12-04T01:33:30;100542.00;;;-5.20
73937;BMP180;59249;59.736;30.568;2023-12-04T01:35:59;100537.00;;;-5.20
73937;BMP180;59249;59.736;30.568;2023-12-04T01:38:28;100527.00;;;-5.20
73937;BMP180;59249;59.736;30.568;2023-12-04T01:40:58;100531.00;;;-5.20
73937;BMP180;59249;59.736;30.568;2023-12-04T01:43:30;100529.00;;;-5.20
73937;BMP180;59249;59.736;30.568;2023-12-04T01:46:01;100536.00;;;-5.20
73937;BMP180;59249;59.736;30.568;2023-12-04T01:48:29;100526.00;;;-5.20
73937;BMP180;59249;59.736;30.568;2023-12-04T01:51:00;100545.00;;;-5.20
73937;BMP180;59249;59.736;30.568;2023-12-04T01:53:35;100527.00;;;-5.20
73937;BMP180;59249;59.736;30.568;2023-12-04T01:56:07;100539.00;;;-5.30
73937;BMP180;59249;59.736;30.568;2023-12-04T01:58:39;100532.00;;;-5.30
73937;BMP180;59249;59.736;30.568;2023-12-04T02:01:09;100531.00;;;-5.30
73937;BMP180;59249;59.736;30.568;2023-12-04T02:03:40;100530.00;;;-5.20
73937;BMP180;59249;59.736;30.568;2023-12-04T02:06:12;100539.00;;;-5.20
73937;BMP180;59249;59.736;30.568;2023-12-04T02:08:42;100540.00;;;-5.20
73937;BMP180;59249;59.736;30.568;2023-12-04T02:11:11;100537.00;;;-5.20
73937;BMP180;59249;59.736;30.568;2023-12-04T02:13:42;100540.00;;;-5.30
73937;BMP180;59249;59.736;30.568;2023-12-04T02:16:12;100534.00;;;-5.30
73937;BMP180;59249;59.736;30.568;2023-12-04T02:18:43;100537.00;;;-5.30
73937;BMP180;59249;59.736;30.568;2023-12-04T02:21:13;100540.00;;;-5.20
73937;BMP180;59249;59.736;30.568;2023-12-04T02:23:42;100533.00;;;-5.20
73937;BMP180;59249;59.736;30.568;2023-12-04T02:26:16;100544.00;;;-5.20
73937;BMP180;59249;59.736;30.568;2023-12-04T02:28:50;100542.00;;;-5.20
73937;BMP180;59249;59.736;30.568;2023-12-04T02:31:24;100551.00;;;-5.10
73937;BMP180;59249;59.736;30.568;2023-12-04T02:33:55;100538.00;;;-5.10
73937;BMP180;59249;59.736;30.568;2023-12-04T02:36:25;100549.00;;;-5.10
73937;BMP180;59249;59.736;30.568;2023-12-04T02:38:58;100538.00;;;-5.10
73937;BMP180;59249;59.736;30.568;2023-12-04T02:41:28;100540.00;;;-5.10
73937;BMP180;59249;59.736;30.568;2023-12-04T02:44:00;100535.00;;;-5.00
73937;BMP180;59249;59.736;30.568;2023-12-04T02:46:33;100535.00;;;-5.10
73937;BMP180;59249;59.736;30.568;2023-12-04T02:49:02;100531.00;;;-5.10
73937;BMP180;59249;59.736;30.568;2023-12-04T02:51:40;100536.00;;;-5.10
73937;BMP180;59249;59.736;30.568;2023-12-04T02:54:10;100534.00;;;-5.10
73937;BMP180;59249;59.736;30.568;2023-12-04T02:56:40;100534.00;;;-5.10
73937;BMP180;59249;59.736;30.568;2023-12-04T02:59:18;100536.00;;;-5.10
73937;BMP180;59249;59.736;30.568;2023-12-04T03:01:51;100543.00;;;-5.10
73937;BMP180;59249;59.736;30.568;2023-12-04T03:04:20;100542.00;;;-5.10
73937;BMP180;59249;59.736;30.568;2023-12-04T03:06:53;100546.00;;;-5.10
73937;BMP180;59249;59.736;30.568;2023-12-04T03:09:24;100548.00;;;-5.10
73937;BMP180;59249;59.736;30.568;2023-12-04T03:12:17;100543.00;;;-5.10
73937;BMP180;59249;59.736;30.568;2023-12-04T03:14:54;100546.00;;;-5.10
73937;BMP180;59249;59.736;30.568;2023-12-04T03:17:33;100547.00;;;-5.10
73937;BMP180;59249;59.736;30.568;2023-12-04T03:20:14;100540.00;;;-5.10
73937;BMP180;59249;59.736;30.568;2023-12-04T03:22:44;100550.00;;;-5.10
73937;BMP180;59249;59.736;30.568;2023-12-04T03:25:15;100541.00;;;-5.20
73937;BMP180;59249;59.736;30.568;2023-12-04T03:27:46;100544.00;;;-5.20
73937;BMP180;59249;59.736;30.568;2023-12-04T03:30:18;100539.00;;;-5.10
73937;BMP180;59249;59.736;30.568;2023-12-04T03:32:48;100544.00;;;-5.20
73937;BMP180;59249;59.736;30.568;2023-12-04T03:35:23;100544.00;;;-5.20
73937;BMP180;59249;59.736;30.568;2023-12-04T03:37:52;100559.00;;;-5.20
73937;BMP180;59249;59.736;30.568;2023-12-04T03:40:24;100551.00;;;-5.20
73937;BMP180;59249;59.736;30.568;2023-12-04T03:43:12;100549.00;;;-5.20
73937;BMP180;59249;59.736;30.568;2023-12-04T03:45:43;100548.00;;;-5.20
73937;BMP180;59249;59.736;30.568;2023-12-04T03:48:13;100551.00;;;-5.30
73937;BMP180;59249;59.736;30.568;2023-12-04T03:50:42;100545.00;;;-5.20
73937;BMP180;59249;59.736;30.568;2023-12-04T03:53:11;100552.00;;;-5.30
73937;BMP180;59249;59.736;30.568;2023-12-04T03:55:42;100550.00;;;-5.40
73937;BMP180;59249;59.736;30.568;2023-12-04T03:58:16;100557.00;;;-5.30
73937;BMP180;59249;59.736;30.568;2023-12-04T04:00:58;100556.00;;;-5.40
73937;BMP180;59249;59.736;30.568;2023-12-04T04:03:28;100564.00;;;-5.30
73937;BMP180;59249;59.736;30.568;2023-12-04T04:06:12;100561.00;;;-5.40
73937;BMP180;59249;59.736;30.568;2023-12-04T04:08:41;100553.00;;;-5.40
73937;BMP180;59249;59.736;30.568;2023-12-04T04:11:10;100558.00;;;-5.40
73937;BMP180;59249;59.736;30.568;2023-12-04T04:13:41;100555.00;;;-5.30
73937;BMP180;59249;59.736;30.568;2023-12-04T04:16:14;100549.00;;;-5.30
73937;BMP180;59249;59.736;30.568;2023-12-04T04:18:43;100556.00;;;-5.40
73937;BMP180;59249;59.736;30.568;2023-12-04T04:21:13;100564.00;;;-5.30
73937;BMP180;59249;59.736;30.568;2023-12-04T04:23:42;100551.00;;;-5.40
73937;BMP180;59249;59.736;30.568;2023-12-04T04:26:12;100564.00;;;-5.40
73937;BMP180;59249;59.736;30.568;2023-12-04T04:28:45;100561.00;;;-5.40
73937;BMP180;59249;59.736;30.568;2023-12-04T04:31:15;100560.00;;;-5.50
73937;BMP180;59249;59.736;30.568;2023-12-04T04:33:45;100559.00;;;-5.50
73937;BMP180;59249;59.736;30.568;2023-12-04T04:36:14;100554.00;;;-5.50
73937;BMP180;59249;59.736;30.568;2023-12-04T04:38:53;100557.00;;;-5.40
73937;BMP180;59249;59.736;30.568;2023-12-04T04:41:36;100562.00;;;-5.40
73937;BMP180;59249;59.736;30.568;2023-12-04T04:44:06;100557.00;;;-5.40
73937;BMP180;59249;59.736;30.568;2023-12-04T04:46:35;100564.00;;;-5.40
73937;BMP180;59249;59.736;30.568;2023-12-04T04:49:04;100562.00;;;-5.40
73937;BMP180;59249;59.736;30.568;2023-12-04T04:51:34;100561.00;;;-5.40
73937;BMP180;59249;59.736;30.568;2023-12-04T04:54:03;100567.00;;;-5.30
73937;BMP180;59249;59.736;30.568;2023-12-04T04:56:33;100561.00;;;-5.30
73937;BMP180;59249;59.736;30.568;2023-12-04T04:59:02;100562.00;;;-5.30
73937;BMP180;59249;59.736;30.568;2023-12-04T05:01:38;100560.00;;;-5.40
73937;BMP180;59249;59.736;30.568;2023-12-04T05:04:07;100566.00;;;-5.30
73937;BMP180;59249;59.736;30.568;2023-12-04T05:06:39;100560.00;;;-5.30
73937;BMP180;59249;59.736;30.568;2023-12-04T05:09:12;100569.00;;;-5.30
73937;BMP180;59249;59.736;30.568;2023-12-04T05:11:42;100562.00;;;-5.20
73937;BMP180;59249;59.736;30.568;2023-12-04T05:14:13;100561.00;;;-5.20
73937;BMP180;59249;59.736;30.568;2023-12-04T05:16:50;100564.00;;;-5.30
73937;BMP180;59249;59.736;30.568;2023-12-04T05:19:20;100562.00;;;-5.30
73937;BMP180;59249;59.736;30.568;2023-12-04T05:21:53;100566.00;;;-5.30
73937;BMP180;59249;59.736;30.568;2023-12-04T05:24:33;100574.00;;;-5.20
73937;BMP180;59249;59.736;30.568;2023-12-04T05:27:06;100576.00;;;-5.30
73937;BMP180;59249;59.736;30.568;2023-12-04T05:29:36;100570.00;;;-5.30
73937;BMP180;59249;59.736;30.568;2023-12-04T05:32:11;100573.00;;;-5.30
73937;BMP180;59249;59.736;30.568;2023-12-04T05:34:40;100575.00;;;-5.40
73937;BMP180;59249;59.736;30.568;2023-12-04T05:37:09;100573.00;;;-5.30
73937;BMP180;59249;59.736;30.568;2023-12-04T05:39:38;100574.00;;;-5.40
73937;BMP180;59249;59.736;30.568;2023-12-04T05:42:09;100568.00;;;-5.40
73937;BMP180;59249;59.736;30.568;2023-12-04T05:44:48;100574.00;;;-5.40
73937;BMP180;59249;59.736;30.568;2023-12-04T05:47:25;100582.00;;;-5.30
73937;BMP180;59249;59.736;30.568;2023-12-04T05:50:07;100574.00;;;-5.40
73937;BMP180;59249;59.736;30.568;2023-12-04T05:52:49;100579.00;;;-5.40
73937;BMP180;59249;59.736;30.568;2023-12-04T05:55:26;100577.00;;;-5.40
73937;BMP180;59249;59.736;30.568;2023-12-04T05:57:55;100574.00;;;-5.40
73937;BMP180;59249;59.736;30.568;2023-12-04T06:00:24;100573.00;;;-5.40
73937;BMP180;59249;59.736;30.568;2023-12-04T06:02:57;100574.00;;;-5.40
73937;BMP180;59249;59.736;30.568;2023-12-04T06:05:26;100574.00;;;-5.50
73937;BMP180;59249;59.736;30.568;2023-12-04T06:07:55;100575.00;;;-5.50
73937;BMP180;59249;59.736;30.568;2023-12-04T06:10:25;100578.00;;;-5.50
73937;BMP180;59249;59.736;30.568;2023-12-04T06:12:54;100583.00;;;-5.50
73937;BMP180;59249;59.736;30.568;2023-12-04T06:15:23;100588.00;;;-5.50
73937;BMP180;59249;59.736;30.568;2023-12-04T06:17:51;100581.00;;;-5.50
73937;BMP180;59249;59.736;30.568;2023-12-04T06:20:22;100582.00;;;-5.40
73937;BMP180;59249;59.736;30.568;2023-12-04T06:22:51;100579.00;;;-5.50
73937;BMP180;59249;59.736;30.568;2023-12-04T06:25:21;100583.00;;;-5.50
73937;BMP180;59249;59.736;30.568;2023-12-04T06:27:51;100589.00;;;-5.50
73937;BMP180;59249;59.736;30.568;2023-12-04T06:30:22;100578.00;;;-5.50
73937;BMP180;59249;59.736;30.568;2023-12-04T06:32:52;100588.00;;;-5.50
73937;BMP180;59249;59.736;30.568;2023-12-04T06:35:24;100592.00;;;-5.50
73937;BMP180;59249;59.736;30.568;2023-12-04T06:38:06;100588.00;;;-5.40
73937;BMP180;59249;59.736;30.568;2023-12-04T06:40:55;100593.00;;;-5.50
73937;BMP180;59249;59.736;30.568;2023-12-04T06:43:26;100582.00;;;-5.50
73937;BMP180;59249;59.736;30.568;2023-12-04T06:45:57;100586.00;;;-5.50
73937;BMP180;59249;59.736;30.568;2023-12-04T06:48:27;100581.00;;;-5.50
73937;BMP180;59249;59.736;30.568;2023-12-04T06:50:57;100579.00;;;-5.50
73937;BMP180;59249;59.736;30.568;2023-12-04T06:53:27;100593.00;;;-5.50
73937;BMP180;59249;59.736;30.568;2023-12-04T06:55:56;100597.00;;;-5.50
73937;BMP180;59249;59.736;30.568;2023-12-04T06:58:25;100592.00;;;-5.50
73937;BMP180;59249;59.736;30.568;2023-12-04T07:00:54;100593.00;;;-5.40
73937;BMP180;59249;59.736;30.568;2023-12-04T07:03:23;100594.00;;;-5.40
73937;BMP180;59249;59.736;30.568;2023-12-04T07:05:52;100594.00;;;-5.40
73937;BMP180;59249;59.736;30.568;2023-12-04T07:08:22;100597.00;;;-5.40
73937;BMP180;59249;59.736;30.568;2023-12-04T07:10:51;100603.00;;;-5.50
73937;BMP180;59249;59.736;30.568;2023-12-04T07:13:31;100607.00;;;-5.40
73937;BMP180;59249;59.736;30.568;2023-12-04T07:16:09;100604.00;;;-5.40
73937;BMP180;59249;59.736;30.568;2023-12-04T07:18:41;100600.00;;;-5.40
73937;BMP180;59249;59.736;30.568;2023-12-04T07:21:11;100600.00;;;-5.40
73937;BMP180;59249;59.736;30.568;2023-12-04T07:23:43;100603.00;;;-5.40
73937;BMP180;59249;59.736;30.568;2023-12-04T07:26:19;100612.00;;;-5.40
73937;BMP180;59249;59.736;30.568;2023-12-04T07:28:55;100607.00;;;-5.40
73937;BMP180;59249;59.736;30.568;2023-12-04T07:31:30;100616.00;;;-5.30
73937;BMP180;59249;59.736;30.568;2023-12-04T07:34:01;100612.00;;;-5.30
73937;BMP180;59249;59.736;30.568;2023-12-04T07:36:40;100624.00;;;-5.30
73937;BMP180;59249;59.736;30.568;2023-12-04T07:39:13;100617.00;;;-5.20
73937;BMP180;59249;59.736;30.568;2023-12-04T07:41:46;100621.00;;;-5.10
73937;BMP180;59249;59.736;30.568;2023-12-04T07:44:18;100630.00;;;-5.10
73937;BMP180;59249;59.736;30.568;2023-12-04T07:46:48;100629.00;;;-5.10
73937;BMP180;59249;59.736;30.568;2023-12-04T07:49:18;100618.00;;;-5.00
73937;BMP180;59249;59.736;30.568;2023-12-04T07:51:47;100623.00;;;-5.00
73937;BMP180;59249;59.736;30.568;2023-12-04T07:54:18;100634.00;;;-5.00
73937;BMP180;59249;59.736;30.568;2023-12-04T07:56:46;100637.00;;;-4.90
73937;BMP180;59249;59.736;30.568;2023-12-04T07:59:15;100617.00;;;-5.00
73937;BMP180;59249;59.736;30.568;2023-12-04T08:01:45;100642.00;;;-4.90
73937;BMP180;59249;59.736;30.568;2023-12-04T08:04:14;100641.00;;;-4.90
73937;BMP180;59249;59.736;30.568;2023-12-04T08:06:43;100642.00;;;-4.80
73937;BMP180;59249;59.736;30.568;2023-12-04T08:09:12;100647.00;;;-4.80
73937;BMP180;59249;59.736;30.568;2023-12-04T08:11:43;100651.00;;;-4.70
73937;BMP180;59249;59.736;30.568;2023-12-04T08:14:12;100642.00;;;-4.80
73937;BMP180;59249;59.736;30.568;2023-12-04T08:16:41;100645.00;;;-4.90
73937;BMP180;59249;59.736;30.568;2023-12-04T08:19:10;100638.00;;;-4.80
73937;BMP180;59249;59.736;30.568;2023-12-04T08:21:39;100643.00;;;-4.90
73937;BMP180;59249;59.736;30.568;2023-12-04T08:24:08;100645.00;;;-4.80
73937;BMP180;59249;59.736;30.568;2023-12-04T08:26:38;100653.00;;;-4.80
73937;BMP180;59249;59.736;30.568;2023-12-04T08:29:08;100646.00;;;-4.80
73937;BMP180;59249;59.736;30.568;2023-12-04T08:31:37;100651.00;;;-4.70
73937;BMP180;59249;59.736;30.568;2023-12-04T08:34:06;100657.00;;;-4.70
73937;BMP180;59249;59.736;30.568;2023-12-04T08:36:35;100650.00;;;-4.70
73937;BMP180;59249;59.736;30.568;2023-12-04T08:39:13;100650.00;;;-4.80
73937;BMP180;59249;59.736;30.568;2023-12-04T08:41:45;100656.00;;;-4.70
73937;BMP180;59249;59.736;30.568;2023-12-04T08:44:29;100649.00;;;-4.90
73937;BMP180;59249;59.736;30.568;2023-12-04T08:46:58;100654.00;;;-5.00
73937;BMP180;59249;59.736;30.568;2023-12-04T08:49:27;100646.00;;;-5.00
73937;BMP180;59249;59.736;30.568;2023-12-04T08:52:09;100647.00;;;-5.00
73937;BMP180;59249;59.736;30.568;2023-12-04T08:54:39;100646.00;;;-5.00
73937;BMP180;59249;59.736;30.568;2023-12-04T08:57:09;100647.00;;;-5.00
73937;BMP180;59249;59.736;30.568;2023-12-04T08:59:40;100655.00;;;-5.00
73937;BMP180;59249;59.736;30.568;2023-12-04T09:02:12;100658.00;;;-5.00
73937;BMP180;59249;59.736;30.568;2023-12-04T09:04:50;100651.00;;;-5.00
73937;BMP180;59249;59.736;30.568;2023-12-04T09:07:21;100648.00;;;-4.90
73937;BMP180;59249;59.736;30.568;2023-12-04T09:09:53;100659.00;;;-4.90
73937;BMP180;59249;59.736;30.568;2023-12-04T09:12:23;100654.00;;;-4.90
73937;BMP180;59249;59.736;30.568;2023-12-04T09:14:54;100650.00;;;-5.00
73937;BMP180;59249;59.736;30.568;2023-12-04T09:17:23;100650.00;;;-5.00
73937;BMP180;59249;59.736;30.568;2023-12-04T09:19:59;100653.00;;;-4.90
73937;BMP180;59249;59.736;30.568;2023-12-04T09:22:30;100651.00;;;-4.90
73937;BMP180;59249;59.736;30.568;2023-12-04T09:25:14;100646.00;;;-5.00
73937;BMP180;59249;59.736;30.568;2023-12-04T09:27:43;100652.00;;;-5.00
73937;BMP180;59249;59.736;30.568;2023-12-04T09:30:14;100659.00;;;-5.10
73937;BMP180;59249;59.736;30.568;2023-12-04T09:32:43;100657.00;;;-5.00
73937;BMP180;59249;59.736;30.568;2023-12-04T09:35:13;100656.00;;;-5.00
73937;BMP180;59249;59.736;30.568;2023-12-04T09:37:42;100655.00;;;-4.90
73937;BMP180;59249;59.736;30.568;2023-12-04T09:40:12;100657.00;;;-4.90
73937;BMP180;59249;59.736;30.568;2023-12-04T09:42:43;100655.00;;;-4.80
73937;BMP180;59249;59.736;30.568;2023-12-04T09:45:14;100656.00;;;-4.90
73937;BMP180;59249;59.736;30.568;2023-12-04T09:47:45;100657.00;;;-4.80
73937;BMP180;59249;59.736;30.568;2023-12-04T09:50:18;100665.00;;;-4.70
73937;BMP180;59249;59.736;30.568;2023-12-04T09:52:50;100663.00;;;-4.80
73937;BMP180;59249;59.736;30.568;2023-12-04T09:55:20;100653.00;;;-4.70
73937;BMP180;59249;59.736;30.568;2023-12-04T09:57:52;100657.00;;;-4.70
73937;BMP180;59249;59.736;30.568;2023-12-04T10:00:28;100660.00;;;-4.70
73937;BMP180;59249;59.736;30.568;2023-12-04T10:03:00;100660.00;;;-4.70
73937;BMP180;59249;59.736;30.568;2023-12-04T10:05:31;100665.00;;;-4.70
73937;BMP180;59249;59.736;30.568;2023-12-04T10:08:00;100662.00;;;-4.80
73937;BMP180;59249;59.736;30.568;2023-12-04T10:10:30;100663.00;;;-4.70
73937;BMP180;59249;59.736;30.568;2023-12-04T10:13:01;100668.00;;;-4.80
73937;BMP180;59249;59.736;30.568;2023-12-04T10:15:32;100670.00;;;-4.80
73937;BMP180;59249;59.736;30.568;2023-12-04T10:18:01;100676.00;;;-4.80
73937;BMP180;59249;59.736;30.568;2023-12-04T10:20:30;100673.00;;;-4.80
73937;BMP180;59249;59.736;30.568;2023-12-04T10:23:02;100671.00;;;-4.70
73937;BMP180;59249;59.736;30.568;2023-12-04T10:25:31;100669.00;;;-4.70
73937;BMP180;59249;59.736;30.568;2023-12-04T10:28:09;100676.00;;;-4.70
73937;BMP180;59249;59.736;30.568;2023-12-04T10:30:40;100677.00;;;-4.70
73937;BMP180;59249;59.736;30.568;2023-12-04T10:33:11;100685.00;;;-4.70
73937;BMP180;59249;59.736;30.568;2023-12-04T10:35:41;100686.00;;;-4.60
73937;BMP180;59249;59.736;30.568;2023-12-04T10:38:11;100683.00;;;-4.60
73937;BMP180;59249;59.736;30.568;2023-12-04T10:40:41;100688.00;;;-4.60
73937;BMP180;59249;59.736;30.568;2023-12-04T10:43:15;100684.00;;;-4.60
73937;BMP180;59249;59.736;30.568;2023-12-04T10:45:48;100687.00;;;-4.60
73937;BMP180;59249;59.736;30.568;2023-12-04T10:48:19;100683.00;;;-4.50
73937;BMP180;59249;59.736;30.568;2023-12-04T10:50:49;100679.00;;;-4.60
73937;BMP180;59249;59.736;30.568;2023-12-04T10:53:19;100685.00;;;-4.60
73937;BMP180;59249;59.736;30.568;2023-12-04T10:55:49;100683.00;;;-4.60
73937;BMP180;59249;59.736;30.568;2023-12-04T10:58:26;100682.00;;;-4.70
73937;BMP180;59249;59.736;30.568;2023-12-04T11:00:57;100691.00;;;-4.60
73937;BMP180;59249;59.736;30.568;2023-12-04T11:03:35;100694.00;;;-4.50
73937;BMP180;59249;59.736;30.568;2023-12-04T11:06:11;100698.00;;;-4.40
73937;BMP180;59249;59.736;30.568;2023-12-04T11:08:42;100701.00;;;-4.30
73937;BMP180;59249;59.736;30.568;2023-12-04T11:11:18;100707.00;;;-4.20
73937;BMP180;59249;59.736;30.568;2023-12-04T11:13:54;100701.00;;;-4.10
73937;BMP180;59249;59.736;30.568;2023-12-04T11:16:33;100702.00;;;-4.20
73937;BMP180;59249;59.736;30.568;2023-12-04T11:19:13;100698.00;;;-4.30
73937;BMP180;59249;59.736;30.568;2023-12-04T11:21:46;100705.00;;;-4.10
73937;BMP180;59249;59.736;30.568;2023-12-04T11:24:18;100700.00;;;-4.10
73937;BMP180;59249;59.736;30.568;2023-12-04T11:26:48;100702.00;;;-4.10
73937;BMP180;59249;59.736;30.568;2023-12-04T11:29:19;100709.00;;;-4.10
73937;BMP180;59249;59.736;30.568;2023-12-04T11:31:50;100711.00;;;-4.10
73937;BMP180;59249;59.736;30.568;2023-12-04T11:34:20;100712.00;;;-4.10
73937;BMP180;59249;59.736;30.568;2023-12-04T11:36:49;100710.00;;;-4.20
73937;BMP180;59249;59.736;30.568;2023-12-04T11:39:21;100701.00;;;-4.20
73937;BMP180;59249;59.736;30.568;2023-12-04T11:41:50;100708.00;;;-4.30
73937;BMP180;59249;59.736;30.568;2023-12-04T11:44:20;100709.00;;;-4.30
73937;BMP180;59249;59.736;30.568;2023-12-04T11:46:57;100712.00;;;-4.30
73937;BMP180;59249;59.736;30.568;2023-12-04T11:49:33;100718.00;;;-4.30
73937;BMP180;59249;59.736;30.568;2023-12-04T11:52:03;100719.00;;;-4.40
73937;BMP180;59249;59.736;30.568;2023-12-04T11:54:57;100719.00;;;-4.50
73937;BMP180;59249;59.736;30.568;2023-12-04T11:57:32;100721.00;;;-4.50
73937;BMP180;59249;59.736;30.568;2023-12-04T12:00:23;100717.00;;;-4.50
73937;BMP180;59249;59.736;30.568;2023-12-04T12:03:05;100717.00;;;-4.50
73937;BMP180;59249;59.736;30.568;2023-12-04T12:05:49;100726.00;;;-4.50
73937;BMP180;59249;59.736;30.568;2023-12-04T12:08:22;100721.00;;;-4.60
73937;BMP180;59249;59.736;30.568;2023-12-04T12:10:53;100715.00;;;-4.60
73937;BMP180;59249;59.736;30.568;2023-12-04T12:13:23;100717.00;;;-4.70
73937;BMP180;59249;59.736;30.568;2023-12-04T12:15:54;100710.00;;;-4.70
73937;BMP180;59249;59.736;30.568;2023-12-04T12:18:27;100720.00;;;-4.70
73937;BMP180;59249;59.736;30.568;2023-12-04T12:20:56;100719.00;;;-4.80
73937;BMP180;59249;59.736;30.568;2023-12-04T12:23:27;100720.00;;;-4.80
73937;BMP180;59249;59.736;30.568;2023-12-04T12:25:58;100706.00;;;-4.70
73937;BMP180;59249;59.736;30.568;2023-12-04T12:28:30;100721.00;;;-4.70
73937;BMP180;59249;59.736;30.568;2023-12-04T12:31:03;100706.00;;;-4.80
73937;BMP180;59249;59.736;30.568;2023-12-04T12:33:39;100712.00;;;-4.80
73937;BMP180;59249;59.736;30.568;2023-12-04T12:36:10;100711.00;;;-4.80
73937;BMP180;59249;59.736;30.568;2023-12-04T12:38:40;100715.00;;;-4.90
73937;BMP180;59249;59.736;30.568;2023-12-04T12:41:10;100716.00;;;-4.90
73937;BMP180;59249;59.736;30.568;2023-12-04T12:43:39;100709.00;;;-5.00
73937;BMP180;59249;59.736;30.568;2023-12-04T12:46:09;100714.00;;;-5.00
73937;BMP180;59249;59.736;30.568;2023-12-04T12:48:42;100717.00;;;-5.00
73937;BMP180;59249;59.736;30.568;2023-12-04T12:51:12;100721.00;;;-5.00
73937;BMP180;59249;59.736;30.568;2023-12-04T12:53:43;100720.00;;;-5.00
73937;BMP180;59249;59.736;30.568;2023-12-04T12:56:18;100725.00;;;-5.00
73937;BMP180;59249;59.736;30.568;2023-12-04T12:58:49;100731.00;;;-5.00
73937;BMP180;59249;59.736;30.568;2023-12-04T13:01:18;100735.00;;;-5.00
73937;BMP180;59249;59.736;30.568;2023-12-04T13:03:49;100741.00;;;-5.10
73937;BMP180;59249;59.736;30.568;2023-12-04T13:06:18;100739.00;;;-5.00
73937;BMP180;59249;59.736;30.568;2023-12-04T13:08:47;100744.00;;;-5.00
73937;BMP180;59249;59.736;30.568;2023-12-04T13:11:16;100737.00;;;-5.00
73937;BMP180;59249;59.736;30.568;2023-12-04T13:13:45;100732.00;;;-4.90
73937;BMP180;59249;59.736;30.568;2023-12-04T13:16:15;100738.00;;;-4.90
73937;BMP180;59249;59.736;30.568;2023-12-04T13:18:44;100739.00;;;-4.90
73937;BMP180;59249;59.736;30.568;2023-12-04T13:21:14;100729.00;;;-4.90
73937;BMP180;59249;59.736;30.568;2023-12-04T13:23:43;100738.00;;;-4.90
73937;BMP180;59249;59.736;30.568;2023-12-04T13:26:12;100736.00;;;-4.90
73937;BMP180;59249;59.736;30.568;2023-12-04T13:28:42;100734.00;;;-4.90
73937;BMP180;59249;59.736;30.568;2023-12-04T13:31:11;100738.00;;;-4.90
73937;BMP180;59249;59.736;30.568;2023-12-04T13:33:40;100740.00;;;-4.90
73937;BMP180;59249;59.736;30.568;2023-12-04T13:36:15;100736.00;;;-4.80
73937;BMP180;59249;59.736;30.568;2023-12-04T13:38:44;100736.00;;;-4.90
73937;BMP180;59249;59.736;30.568;2023-12-04T13:41:19;100740.00;;;-4.80
73937;BMP180;59249;59.736;30.568;2023-12-04T13:44:02;100742.00;;;-4.90
73937;BMP180;59249;59.736;30.568;2023-12-04T13:46:32;100734.00;;;-4.90
73937;BMP180;59249;59.736;30.568;2023-12-04T13:49:03;100737.00;;;-4.90
73937;BMP180;59249;59.736;30.568;2023-12-04T13:51:36;100740.00;;;-5.00
73937;BMP180;59249;59.736;30.568;2023-12-04T13:54:08;100736.00;;;-5.00
73937;BMP180;59249;59.736;30.568;2023-12-04T13:56:48;100739.00;;;-5.10
73937;BMP180;59249;59.736;30.568;2023-12-04T13:59:24;100747.00;;;-5.20
73937;BMP180;59249;59.736;30.568;2023-12-04T14:01:54;100747.00;;;-5.20
73937;BMP180;59249;59.736;30.568;2023-12-04T14:04:27;100736.00;;;-5.30
73937;BMP180;59249;59.736;30.568;2023-12-04T14:06:59;100759.00;;;-5.30
73937;BMP180;59249;59.736;30.568;2023-12-04T14:09:32;100761.00;;;-5.40